Skip Navigation LinksHome page > Weather > Current weather Skip Navigation Links

Current Weather

Jakutsk, Russia

For information only: do not use for flight planning or navigation.
Latest weather
Observation time Saturday, August 19, 2017 2:00 PM JST
Local time Saturday, August 19, 2017 2:22 PM JST
Flight conditions Visual Meteorological Conditions
Winds
Wind direction West-Northwest (290°)
Wind speed 7 mph
Visibility 6.2 mi.
Sky condition
Ceiling unlimited
Cloud layer scattered clouds with cumulonimbus 3,000 ft.
Temperature 64°F
Dewpoint 48°F
Altimeter 29.77 in.Hg
Precipitation
QF 2:27 AM
Derived measurements
Relative humidity 56%
Density altitude 1032 ft.
Remarks
No significant changes expected in the next two hours.
METAR UEEE 190500Z 29003MPS 9999 SCT030CB 18/09 Q1008 R23L/09//60 NOSIG RMK QFE747

Settings

Location code

InnerDrive.Weather 4.0.6144.1 Release CLR 4.0.30319.36366
Copyright ©2015 Inner Drive Technology. All rights reserved. Portions Copyright ©1986-2015 David Braverman.

Find weather

Site navigation


Skip Navigation Links

Place info

Page info

PayPal - The safer, easier way to pay online!

Return home.

Copyright ©2017 Inner Drive Technology. Purveyors of fine, hand-crafted computer software. Page printed 2017-08-19T05:22:51 UTC.